Time;durP1;ratioP1;P1;durP2;ratioP2;P2;SDS_P1;SDS_P2;PMS_P1;PMS_P2;Temp;Humidity;BMP_temperature;BMP_pressure;BME280_temperature;BME280_humidity;BME280_pressure;Samples;Min_cycle;Max_cycle;Signal;HPM_P1;HPM_P2
2023/08/25 00:01:00;;;;;;;2.25;1.13;;;;;;;8.02;56.52;95994.13;6297501;28;20057;-69
2023/08/25 00:04:04;;;;;;;2.75;1.08;;;;;;;7.91;56.44;95987.94;6298215;28;20044;-69
2023/08/25 00:07:11;;;;;;;2.70;1.40;;;;;;;7.94;56.95;96006.91;6298239;28;20542;-70
2023/08/25 00:10:17;;;;;;;2.30;1.25;;;;;;;7.90;57.12;95994.97;6297888;28;20037;-70
2023/08/25 00:13:20;;;;;;;2.50;1.10;;;;;;;7.88;57.25;95997.69;6297685;28;20051;-70
2023/08/25 00:16:25;;;;;;;2.50;1.17;;;;;;;7.88;56.89;95994.22;6263123;28;20126;-71
2023/08/25 00:19:32;;;;;;;1.77;0.90;;;;;;;7.95;56.92;96005.94;6297665;28;20036;-70
2023/08/25 00:22:34;;;;;;;2.70;1.10;;;;;;;7.88;57.17;96007.34;6297609;28;20041;-70
2023/08/25 00:25:44;;;;;;;1.92;1.08;;;;;;;7.82;57.36;96007.75;6297534;28;20410;-70
2023/08/25 00:28:53;;;;;;;2.08;1.30;;;;;;;7.68;57.74;96007.84;6297470;28;20542;-71
2023/08/25 00:31:56;;;;;;;3.05;1.45;;;;;;;7.49;58.07;96001.19;6297185;28;20044;-71
2023/08/25 00:34:58;;;;;;;2.67;1.42;;;;;;;7.37;58.41;96007.25;6297006;28;20071;-71
2023/08/25 00:38:06;;;;;;;4.32;1.58;;;;;;;7.26;58.95;96005.34;6297417;28;20036;-70
2023/08/25 00:41:13;;;;;;;5.97;1.42;;;;;;;7.22;58.77;96009.13;6297285;28;20506;-70
2023/08/25 00:44:14;;;;;;;2.00;0.80;;;;;;;7.15;59.22;96011.25;6297328;28;20036;-70
2023/08/25 00:47:20;;;;;;;2.47;0.90;;;;;;;7.12;59.39;96010.63;6295979;28;20048;-70
2023/08/25 00:50:28;;;;;;;1.52;0.93;;;;;;;7.07;59.76;96010.91;6296731;28;20143;-70
2023/08/25 00:53:33;;;;;;;1.73;0.85;;;;;;;7.02;60.06;96010.41;6296898;28;20040;-71
2023/08/25 00:56:39;;;;;;;2.92;1.10;;;;;;;7.07;59.92;96007.47;6295996;28;20047;-70
2023/08/25 00:59:43;;;;;;;2.10;1.10;;;;;;;7.06;59.61;96019.72;6296529;28;20098;-70
2023/08/25 01:02:46;;;;;;;2.22;0.93;;;;;;;7.06;59.78;96019.72;6295903;28;20048;-70
2023/08/25 01:05:48;;;;;;;3.30;1.10;;;;;;;6.99;59.60;96005.34;6293712;28;20040;-71
2023/08/25 01:08:52;;;;;;;3.22;1.20;;;;;;;7.03;59.56;96019.91;6293624;28;20048;-71
2023/08/25 01:12:08;;;;;;;1.25;1.15;;;;;;;7.04;59.58;96016.34;6294034;28;20642;-71
2023/08/25 01:15:32;;;;;;;1.23;1.13;;;;;;;7.12;59.77;96013.25;6295299;28;20036;-72
2023/08/25 01:18:41;;;;;;;2.08;1.20;;;;;;;7.07;59.64;96008.31;6296047;28;20048;-70
2023/08/25 01:21:58;;;;;;;2.17;1.23;;;;;;;7.13;59.70;96018.41;6295972;28;20148;-71
2023/08/25 01:25:22;;;;;;;2.88;0.85;;;;;;;7.17;59.54;96022.47;6295783;28;20045;-70
2023/08/25 01:28:28;;;;;;;1.15;1.05;;;;;;;7.15;59.50;96008.66;6296079;28;20446;-70
2023/08/25 01:31:31;;;;;;;2.60;1.50;;;;;;;7.22;59.42;96016.09;6296036;28;20040;-70
2023/08/25 01:34:33;;;;;;;5.80;1.05;;;;;;;7.32;59.15;96014.56;6295678;28;20083;-70
2023/08/25 01:38:06;;;;;;;2.30;1.17;;;;;;;7.46;59.31;96011.88;6295901;28;20043;-71
2023/08/25 01:41:16;;;;;;;2.55;0.90;;;;;;;7.49;59.25;96006.44;6176681;28;20040;-70
2023/08/25 01:44:19;;;;;;;4.15;1.23;;;;;;;7.69;58.52;96014.75;6295227;28;20519;-70
2023/08/25 01:47:28;;;;;;;3.75;1.15;;;;;;;7.79;58.51;96013.19;6295407;28;20131;-70
2023/08/25 01:50:39;;;;;;;11.50;4.65;;;;;;;7.92;58.21;96014.03;6295102;28;20048;-71
2023/08/25 01:53:56;;;;;;;3.35;1.70;;;;;;;8.05;58.26;96014.88;6277905;28;20041;-70
2023/08/25 01:57:00;;;;;;;3.03;1.27;;;;;;;8.08;57.79;96005.97;6294546;28;20055;-70
2023/08/25 02:00:07;;;;;;;3.08;1.20;;;;;;;8.20;57.48;96017.38;6295027;28;20044;-70
2023/08/25 02:03:13;;;;;;;2.20;1.13;;;;;;;8.32;57.49;96012.16;6294595;28;20519;-71
2023/08/25 02:06:19;;;;;;;1.67;1.33;;;;;;;8.41;57.53;96015.94;6295105;28;20055;-70
2023/08/25 02:09:27;;;;;;;3.63;1.35;;;;;;;8.50;57.20;96015.28;6294004;28;20498;-70
2023/08/25 02:12:33;;;;;;;2.55;1.30;;;;;;;8.67;56.61;96016.72;6293964;28;20055;-70
2023/08/25 02:15:37;;;;;;;3.67;1.33;;;;;;;8.78;56.31;96005.47;6293607;28;20400;-71
2023/08/25 02:18:40;;;;;;;4.97;1.40;;;;;;;9.09;56.04;96019.00;6276004;28;20530;-70
2023/08/25 02:21:44;;;;;;;3.63;1.27;;;;;;;9.31;55.09;96021.72;6293945;28;20571;-70
2023/08/25 02:24:48;;;;;;;5.85;1.67;;;;;;;9.53;54.73;96017.50;6294661;28;20470;-70
2023/08/25 02:27:52;;;;;;;5.40;2.05;;;;;;;9.78;54.17;96014.72;6277182;28;20048;-70
2023/08/25 02:30:56;;;;;;;5.05;2.58;;;;;;;9.98;53.61;96013.22;6294613;28;20491;-70
2023/08/25 02:33:59;;;;;;;8.68;4.53;;;;;;;10.21;53.19;96014.06;6294517;28;20044;-70
2023/08/25 02:37:03;;;;;;;6.07;3.22;;;;;;;10.43;52.76;96020.34;6276041;28;20053;-71
2023/08/25 02:40:08;;;;;;;8.32;1.83;;;;;;;10.63;52.45;96022.25;6294462;28;20422;-70
2023/08/25 02:43:14;;;;;;;3.55;1.70;;;;;;;10.83;52.03;96017.22;6275943;28;20053;-71
2023/08/25 02:46:15;;;;;;;5.43;1.85;;;;;;;10.82;51.89;95994.50;6293751;28;20047;-70
2023/08/25 02:49:24;;;;;;;5.97;2.42;;;;;;;10.95;51.70;95992.53;6268093;28;20061;-70
2023/08/25 02:52:31;;;;;;;5.72;1.67;;;;;;;11.34;51.67;96032.41;6268970;28;20143;-70
2023/08/25 02:55:34;;;;;;;5.05;1.70;;;;;;;11.46;51.64;96031.41;6268189;28;20045;-71
2023/08/25 02:58:36;;;;;;;5.70;1.20;;;;;;;11.53;51.37;96019.41;6268886;28;20044;-70
2023/08/25 03:01:44;;;;;;;6.63;1.67;;;;;;;11.67;50.99;96020.91;6268160;28;20052;-71
2023/08/25 03:04:48;;;;;;;6.35;1.67;;;;;;;11.85;50.69;96026.44;6269207;28;20045;-70
2023/08/25 03:07:54;;;;;;;;;;;;;;;11.99;50.58;96031.41;6269426;28;20500;-69
2023/08/25 03:11:01;;;;;;;6.28;1.77;;;;;;;12.13;50.45;96031.09;6269041;28;19921;-70
2023/08/25 03:14:03;;;;;;;7.60;2.05;;;;;;;12.29;50.16;96029.81;6268368;28;20049;-70
2023/08/25 03:17:07;;;;;;;4.05;1.80;;;;;;;12.36;49.63;96015.94;6268336;28;20203;-69
2023/08/25 03:20:12;;;;;;;4.13;1.50;;;;;;;12.46;49.54;96025.72;6268842;28;20492;-70
2023/08/25 03:23:13;;;;;;;2.97;1.75;;;;;;;12.53;49.29;96021.59;6268280;28;20136;-69
2023/08/25 03:26:15;;;;;;;5.18;1.55;;;;;;;12.59;49.26;96023.69;6268159;28;20179;-69
2023/08/25 03:29:21;;;;;;;2.60;1.00;;;;;;;12.69;48.40;96026.38;6268328;28;20049;-69
2023/08/25 03:32:28;;;;;;;3.22;1.48;;;;;;;12.77;47.81;96026.56;6267401;28;20041;-69
2023/08/25 03:35:35;;;;;;;7.03;1.60;;;;;;;12.81;47.02;96030.59;6268276;28;20045;-69
2023/08/25 03:38:37;;;;;;;12.55;1.55;;;;;;;12.87;46.59;96029.22;6268383;28;20048;-69
2023/08/25 03:41:40;;;;;;;4.32;1.08;;;;;;;12.99;45.98;96030.75;6268267;28;20052;-69
2023/08/25 03:44:41;;;;;;;;;;;;;;;13.15;45.74;96017.06;6267703;28;20045;-70
2023/08/25 03:47:42;;;;;;;2.25;0.80;;;;;;;13.32;44.84;96024.34;6268375;28;20007;-69
2023/08/25 03:50:52;;;;;;;2.38;0.70;;;;;;;13.54;43.85;96027.72;6243869;28;20042;-69
2023/08/25 03:53:55;;;;;;;1.95;0.88;;;;;;;13.70;43.55;96027.97;6243317;28;20532;-70
2023/08/25 03:57:04;;;;;;;4.57;1.00;;;;;;;13.94;42.54;96014.31;6243736;28;20132;-69
2023/08/25 04:00:07;;;;;;;3.08;0.80;;;;;;;14.10;41.80;96030.47;6242951;28;20068;-70
2023/08/25 04:03:13;;;;;;;2.72;1.00;;;;;;;14.20;41.60;96033.06;6243746;28;20179;-69
2023/08/25 04:06:17;;;;;;;1.85;0.90;;;;;;;14.34;41.39;96032.63;6244728;28;20053;-70
2023/08/25 04:09:26;;;;;;;6.68;3.33;;;;;;;14.51;40.98;96027.56;6248118;28;20045;-69
2023/08/25 04:12:32;;;;;;;6.15;1.55;;;;;;;14.66;40.76;96031.44;6248355;28;20492;-70
2023/08/25 04:15:41;;;;;;;3.05;1.20;;;;;;;14.70;40.65;96032.00;6248122;28;20504;-69
2023/08/25 04:18:42;;;;;;;3.13;1.08;;;;;;;14.67;40.21;96022.53;6247780;28;20423;-70
2023/08/25 04:21:45;;;;;;;5.38;1.58;;;;;;;14.77;40.16;96033.91;6247778;28;20080;-71
2023/08/25 04:24:46;;;;;;;4.45;1.45;;;;;;;14.79;40.28;96037.25;6247565;28;20140;-71
2023/08/25 04:27:47;;;;;;;2.35;1.20;;;;;;;14.80;40.30;96033.63;6229814;28;20087;-71
2023/08/25 04:30:54;;;;;;;2.78;1.52;;;;;;;14.82;39.81;96031.66;6247858;28;20088;-69
2023/08/25 04:33:58;;;;;;;1.52;1.10;;;;;;;14.93;39.96;96029.81;6247951;28;20058;-69
2023/08/25 04:37:02;;;;;;;;;;;;;;;15.05;40.13;96033.91;6248035;28;20045;-69
2023/08/25 04:40:04;;;;;;;2.35;1.38;;;;;;;15.17;39.39;96029.25;6246696;28;19921;-70
2023/08/25 04:43:06;;;;;;;2.55;1.40;;;;;;;15.25;39.38;96032.81;6246550;28;20168;-69
2023/08/25 04:46:15;;;;;;;7.22;1.30;;;;;;;15.40;38.66;96034.94;6247389;28;20041;-69
2023/08/25 04:49:21;;;;;;;4.68;2.03;;;;;;;15.46;39.02;96029.06;6258798;28;20436;-69
2023/08/25 04:52:27;;;;;;;2.63;1.35;;;;;;;15.61;38.76;96032.84;6271404;28;20060;-69
2023/08/25 04:55:33;;;;;;;3.15;1.35;;;;;;;15.77;38.38;96031.38;6271925;28;20083;-69
2023/08/25 04:58:34;;;;;;;1.80;1.20;;;;;;;15.91;37.53;96030.84;6271324;28;20049;-70
2023/08/25 05:01:36;;;;;;;1.25;0.93;;;;;;;15.98;37.60;96023.94;6271458;28;20044;-69
2023/08/25 05:04:42;;;;;;;1.65;0.70;;;;;;;16.15;35.85;96028.38;6271292;28;20033;-70
2023/08/25 05:07:43;;;;;;;2.67;0.73;;;;;;;16.25;35.55;96022.13;6271244;28;20045;-69
2023/08/25 05:10:44;;;;;;;2.88;1.10;;;;;;;16.41;34.93;96027.56;6271360;28;20420;-69
2023/08/25 05:13:45;;;;;;;2.95;1.42;;;;;;;16.51;34.77;96020.31;6271181;28;20061;-69
2023/08/25 05:16:50;;;;;;;3.05;1.00;;;;;;;17.20;34.24;96028.31;6270366;28;20060;-70
2023/08/25 05:19:52;;;;;;;1.17;0.50;;;;;;;21.39;29.29;96035.09;6270103;28;20377;-70
2023/08/25 05:22:59;;;;;;;2.13;0.70;;;;;;;26.22;24.06;96042.34;6271430;28;20053;-71
2023/08/25 05:26:03;;;;;;;2.60;0.50;;;;;;;30.49;19.71;96041.19;6269320;28;20056;-69
2023/08/25 05:29:04;;;;;;;0.77;0.35;;;;;;;34.03;16.78;96051.94;6271006;28;20114;-71
2023/08/25 05:32:12;;;;;;;3.35;2.03;;;;;;;36.51;14.79;96055.69;6271051;28;20045;-71
2023/08/25 05:35:20;;;;;;;1.30;0.60;;;;;;;37.82;13.52;96057.53;6271037;28;20492;-71
2023/08/25 05:38:26;;;;;;;1.70;1.50;;;;;;;39.35;12.83;96048.13;6270106;28;20080;-71
2023/08/25 05:41:27;;;;;;;0.70;0.40;;;;;;;40.59;11.68;96048.03;6270463;28;20575;-71
2023/08/25 05:44:31;;;;;;;0.73;0.50;;;;;;;41.76;10.27;96044.25;6270657;28;20526;-72
2023/08/25 05:47:34;;;;;;;2.83;0.52;;;;;;;42.53;9.70;96047.50;6270053;28;20064;-70
2023/08/25 05:50:41;;;;;;;3.72;0.40;;;;;;;43.19;9.64;96048.13;6292034;28;20075;-70
2023/08/25 05:53:48;;;;;;;1.50;0.50;;;;;;;44.49;8.64;96043.13;6295559;28;20040;-70
2023/08/25 05:56:55;;;;;;;2.08;0.50;;;;;;;45.83;7.83;96044.72;6295102;28;20056;-71
2023/08/25 06:00:00;;;;;;;5.70;4.55;;;;;;;46.79;7.71;96044.94;6294475;28;20533;-70
2023/08/25 06:03:04;;;;;;;3.97;1.17;;;;;;;47.93;6.83;96046.41;6294214;28;20155;-70
2023/08/25 06:06:12;;;;;;;1.83;0.73;;;;;;;49.16;6.30;96042.31;6294586;28;20041;-72
2023/08/25 06:09:21;;;;;;;1.55;0.40;;;;;;;50.04;5.94;96049.88;6295224;28;20309;-69
2023/08/25 06:12:24;;;;;;;1.77;0.60;;;;;;;50.47;5.64;96036.50;6294064;28;20076;-69
2023/08/25 06:15:30;;;;;;;1.90;0.50;;;;;;;50.39;5.49;96041.19;6277253;28;20078;-72
2023/08/25 06:18:40;;;;;;;3.17;0.60;;;;;;;50.14;5.11;96024.06;6294868;28;20040;-72
2023/08/25 06:21:47;;;;;;;1.25;0.30;;;;;;;50.18;5.02;96035.28;6294782;28;20044;-69
2023/08/25 06:24:51;;;;;;;0.20;0.20;;;;;;;48.81;5.66;96023.66;6294013;28;20049;-70
2023/08/25 06:27:56;;;;;;;0.47;0.22;;;;;;;48.37;5.88;96023.91;6294396;28;20052;-70
2023/08/25 06:31:08;;;;;;;2.65;0.40;;;;;;;49.43;5.37;96013.31;6294354;28;20036;-71
2023/08/25 06:34:11;;;;;;;1.17;0.30;;;;;;;50.20;4.68;96028.13;6294706;28;20210;-70
2023/08/25 06:37:20;;;;;;;1.35;0.20;;;;;;;48.97;4.93;96020.78;6294523;28;20261;-70
2023/08/25 06:40:25;;;;;;;1.25;0.40;;;;;;;44.77;6.84;96005.38;6294306;28;20488;-71
2023/08/25 06:43:34;;;;;;;0.88;0.40;;;;;;;42.65;7.56;96000.63;6293857;28;20044;-71
2023/08/25 06:46:40;;;;;;;0.40;0.28;;;;;;;41.80;7.99;95997.44;6293906;28;20045;-70
2023/08/25 06:49:44;;;;;;;0.60;0.20;;;;;;;40.15;8.72;95984.25;6293966;28;20053;-71
2023/08/25 06:52:51;;;;;;;2.15;0.20;;;;;;;41.12;8.10;95978.34;6292964;28;20131;-70
2023/08/25 06:55:58;;;;;;;0.43;0.20;;;;;;;43.38;7.45;95994.31;6294253;28;20147;-71
2023/08/25 06:59:02;;;;;;;3.60;0.90;;;;;;;46.41;6.40;96000.09;6294169;28;20507;-70
2023/08/25 07:02:07;;;;;;;0.55;0.20;;;;;;;49.28;5.05;96000.25;6293876;28;20033;-71
2023/08/25 07:05:13;;;;;;;2.20;0.40;;;;;;;51.01;4.32;96007.22;6292519;28;20071;-71
2023/08/25 07:08:20;;;;;;;0.40;0.10;;;;;;;51.29;4.22;96000.28;6293825;28;20055;-71
2023/08/25 07:11:28;;;;;;;0.63;0.13;;;;;;;51.02;4.36;96010.81;6293834;28;20045;-71
2023/08/25 07:14:33;;;;;;;1.65;0.20;;;;;;;50.85;4.62;96001.81;6292794;28;20052;-71
2023/08/25 07:17:37;;;;;;;0.45;0.20;;;;;;;50.95;4.39;96003.13;6293851;28;20468;-71
2023/08/25 07:20:41;;;;;;;0.35;0.20;;;;;;;50.64;4.28;95991.16;6293009;28;20045;-71
2023/08/25 07:23:47;;;;;;;0.75;0.45;;;;;;;50.91;4.33;95991.88;6293800;28;20048;-71
2023/08/25 07:26:54;;;;;;;1.48;0.20;;;;;;;50.69;4.44;95996.44;6293607;28;20074;-71
2023/08/25 07:29:59;;;;;;;1.08;0.20;;;;;;;50.82;4.12;96001.75;6293612;28;20427;-71
2023/08/25 07:33:04;;;;;;;0.57;0.13;;;;;;;50.01;4.56;95980.69;6292838;28;20056;-71
2023/08/25 07:36:05;;;;;;;0.22;0.10;;;;;;;50.32;4.30;95980.34;6292903;28;20523;-71
2023/08/25 07:39:12;;;;;;;0.52;0.10;;;;;;;50.92;4.20;95989.88;6293745;28;20044;-71
2023/08/25 07:42:23;;;;;;;0.85;0.10;;;;;;;51.84;3.98;95983.56;6296973;28;20097;-72
2023/08/25 07:45:30;;;;;;;7.83;6.57;;;;;;;51.96;3.65;95986.06;6298250;28;20040;-72
2023/08/25 07:48:37;;;;;;;0.80;0.45;;;;;;;50.79;4.14;95977.31;6298253;28;20451;-72
2023/08/25 07:51:45;;;;;;;0.85;0.30;;;;;;;50.60;4.10;95979.09;6298327;28;20503;-70
2023/08/25 07:54:48;;;;;;;0.43;0.20;;;;;;;50.99;4.04;95970.38;6298062;28;20033;-72
2023/08/25 07:57:54;;;;;;;1.65;0.20;;;;;;;51.37;3.39;95976.75;6297950;28;20123;-70
2023/08/25 08:01:02;;;;;;;1.67;0.82;;;;;;;47.51;4.96;95960.56;6297218;28;20052;-70
2023/08/25 08:04:08;;;;;;;0.50;0.20;;;;;;;47.30;5.11;95954.41;6297653;28;20048;-70
2023/08/25 08:07:15;;;;;;;0.20;0.10;;;;;;;48.17;4.47;95955.31;6297861;28;20041;-70
2023/08/25 08:10:19;;;;;;;0.20;0.20;;;;;;;45.41;5.93;95950.44;6297923;28;20574;-70
2023/08/25 08:13:27;;;;;;;0.55;0.38;;;;;;;46.27;5.59;95947.59;6279974;28;20177;-70
2023/08/25 08:16:33;;;;;;;2.28;0.50;;;;;;;48.59;4.61;95951.84;6297187;28;20045;-71
2023/08/25 08:19:37;;;;;;;0.20;0.10;;;;;;;49.87;4.26;95953.28;6297505;28;20527;-71
2023/08/25 08:22:44;;;;;;;0.95;0.35;;;;;;;51.28;3.82;95951.03;6297651;28;20044;-71
2023/08/25 08:25:54;;;;;;;0.43;0.30;;;;;;;52.14;3.97;95951.69;6297373;28;20051;-71
2023/08/25 08:28:56;;;;;;;0.25;0.10;;;;;;;52.29;3.61;95956.16;6297695;28;20090;-70
2023/08/25 08:32:04;;;;;;;1.05;0.22;;;;;;;51.12;3.62;95957.69;6297200;28;20422;-71
2023/08/25 08:35:07;;;;;;;0.50;0.10;;;;;;;51.10;3.97;95946.09;6296938;28;20067;-70
2023/08/25 08:38:14;;;;;;;0.75;0.10;;;;;;;52.02;3.46;95944.44;6279593;28;20125;-71
2023/08/25 08:41:20;;;;;;;0.95;0.10;;;;;;;52.82;2.90;95943.56;6297243;28;20029;-71
2023/08/25 08:44:22;;;;;;;1.60;1.08;;;;;;;53.70;3.29;95950.50;6278296;28;20060;-70
2023/08/25 08:47:27;;;;;;;0.80;0.47;;;;;;;52.68;2.90;95952.78;6278480;28;20562;-70
2023/08/25 08:50:34;;;;;;;1.42;0.47;;;;;;;51.31;3.50;95944.66;6296476;28;20052;-69
2023/08/25 08:53:43;;;;;;;1.58;0.30;;;;;;;49.26;3.89;95929.94;6295129;28;20425;-70
2023/08/25 08:56:47;;;;;;;1.67;0.13;;;;;;;45.85;5.21;95920.09;6295745;28;20106;-72
2023/08/25 08:59:52;;;;;;;0.32;0.17;;;;;;;46.67;5.04;95921.72;6295599;28;20044;-70
2023/08/25 09:02:58;;;;;;;1.27;0.32;;;;;;;49.22;4.03;95923.47;6295249;28;20419;-69
2023/08/25 09:06:03;;;;;;;0.98;0.17;;;;;;;50.55;3.83;95931.84;6294788;28;20048;-70
2023/08/25 09:09:10;;;;;;;1.15;0.10;;;;;;;50.85;3.74;95929.00;6295335;28;20548;-71
2023/08/25 09:12:17;;;;;;;0.47;0.10;;;;;;;48.91;4.50;95914.16;6295325;28;20147;-71
2023/08/25 09:15:33;;;;;;;1.58;0.17;;;;;;;46.53;4.99;95905.41;6295381;28;20052;-71
2023/08/25 09:18:42;;;;;;;1.90;0.30;;;;;;;44.46;6.44;95905.94;6293418;28;20135;-71
2023/08/25 09:21:46;;;;;;;2.08;0.20;;;;;;;43.51;6.65;95896.31;6293959;28;20130;-71
2023/08/25 09:24:57;;;;;;;0.38;0.25;;;;;;;41.65;7.05;95885.47;6294698;28;20048;-71
2023/08/25 09:28:03;;;;;;;0.60;0.20;;;;;;;37.99;8.86;95883.22;6294839;28;20121;-70
2023/08/25 09:31:22;;;;;;;3.00;0.20;;;;;;;35.26;10.37;95884.16;6295434;28;20048;-71
2023/08/25 09:34:28;;;;;;;2.38;0.32;;;;;;;33.98;11.15;95884.34;6295468;28;20507;-70
2023/08/25 09:37:42;;;;;;;2.28;0.40;;;;;;;35.93;10.31;95889.28;6294402;28;20233;-70
2023/08/25 09:40:51;;;;;;;0.90;0.20;;;;;;;36.90;9.96;95869.25;6295150;28;20096;-69
2023/08/25 09:43:58;;;;;;;1.55;0.30;;;;;;;40.33;7.99;95882.44;6293622;28;20071;-71
2023/08/25 09:47:09;;;;;;;1.17;0.20;;;;;;;43.22;6.88;95886.88;6295173;28;20059;-69
2023/08/25 09:50:15;;;;;;;0.80;0.30;;;;;;;44.49;6.25;95893.34;6294635;28;20060;-69
2023/08/25 09:53:23;;;;;;;0.90;0.20;;;;;;;45.21;5.71;95891.91;6294999;28;20511;-69
2023/08/25 09:56:27;;;;;;;2.13;0.30;;;;;;;45.82;5.71;95888.25;6294291;28;20055;-69
2023/08/25 09:59:31;;;;;;;0.30;0.10;;;;;;;45.97;5.58;95885.94;6295331;28;20040;-69
2023/08/25 10:02:32;;;;;;;;;;;;;;;47.04;5.50;95896.47;6294252;28;20048;-69
2023/08/25 10:05:37;;;;;;;0.98;0.20;;;;;;;44.38;5.75;95876.31;6294493;28;20383;-69
2023/08/25 10:08:42;;;;;;;1.30;0.30;;;;;;;43.41;6.26;95878.16;6294735;28;20040;-69
2023/08/25 10:11:48;;;;;;;0.60;0.20;;;;;;;42.96;6.42;95880.66;6295039;28;20529;-69
2023/08/25 10:14:56;;;;;;;1.45;0.20;;;;;;;41.44;6.83;95866.72;6294939;28;20040;-70
2023/08/25 10:18:06;;;;;;;0.60;0.20;;;;;;;40.21;7.67;95873.94;6294981;28;20040;-69
2023/08/25 10:21:15;;;;;;;1.08;0.15;;;;;;;41.03;7.31;95865.13;6294662;28;20044;-69
2023/08/25 10:24:23;;;;;;;0.20;0.10;;;;;;;42.05;7.13;95871.53;6294608;28;20041;-69
2023/08/25 10:27:28;;;;;;;1.10;0.10;;;;;;;42.55;6.77;95869.06;6294544;28;20050;-69
2023/08/25 10:30:39;;;;;;;0.22;0.10;;;;;;;43.35;6.66;95867.63;6294870;28;20037;-69
2023/08/25 10:33:50;;;;;;;0.68;0.25;;;;;;;43.41;6.28;95867.06;6293241;28;20040;-69
2023/08/25 10:37:03;;;;;;;0.30;0.20;;;;;;;42.13;6.49;95862.44;6293533;28;20158;-69
2023/08/25 10:40:10;;;;;;;0.28;0.20;;;;;;;40.27;7.52;95848.69;6294066;28;20041;-71
2023/08/25 10:43:11;;;;;;;1.90;0.20;;;;;;;39.42;8.28;95842.13;6294068;28;20142;-70
2023/08/25 10:46:20;;;;;;;5.32;0.40;;;;;;;39.26;8.38;95858.94;6293968;28;20048;-70
2023/08/25 10:49:24;;;;;;;1.15;0.50;;;;;;;38.59;8.21;95848.44;6275993;28;20135;-69
2023/08/25 10:52:33;;;;;;;0.70;0.50;;;;;;;38.53;8.49;95841.41;6293607;28;20036;-70
2023/08/25 10:55:38;;;;;;;0.85;0.30;;;;;;;38.97;8.34;95850.19;6293800;28;20048;-69
2023/08/25 10:58:53;;;;;;;0.52;0.50;;;;;;;38.68;8.33;95826.53;6293726;28;20384;-70
2023/08/25 11:02:01;;;;;;;1.67;0.70;;;;;;;39.20;8.56;95849.16;6293701;28;20040;-69
2023/08/25 11:05:28;;;;;;;0.60;0.20;;;;;;;39.13;8.39;95837.78;6294076;28;20059;-69
2023/08/25 11:08:35;;;;;;;0.85;0.30;;;;;;;38.21;8.33;95838.66;6293723;28;20072;-69
2023/08/25 11:11:41;;;;;;;0.32;0.30;;;;;;;36.91;9.45;95828.94;6293887;28;20047;-70
2023/08/25 11:14:46;;;;;;;1.35;0.20;;;;;;;35.24;10.23;95831.66;6292947;28;20048;-70
2023/08/25 11:17:49;;;;;;;1.50;0.25;;;;;;;33.96;11.02;95823.75;6293578;28;20040;-69
2023/08/25 11:20:51;;;;;;;1.02;0.32;;;;;;;32.86;11.02;95826.78;6292871;28;20063;-70
2023/08/25 11:23:59;;;;;;;2.85;0.22;;;;;;;32.65;11.41;95821.25;6293428;28;20040;-69
2023/08/25 11:27:11;;;;;;;0.30;0.20;;;;;;;32.85;11.73;95833.31;6293491;28;20048;-69
2023/08/25 11:30:19;;;;;;;1.50;0.25;;;;;;;31.97;12.16;95818.34;6293287;28;20041;-72
2023/08/25 11:33:25;;;;;;;1.48;0.60;;;;;;;31.67;12.50;95812.63;6293304;28;20131;-71
2023/08/25 11:36:31;;;;;;;1.85;0.47;;;;;;;31.82;12.73;95822.81;6293018;28;20517;-72
2023/08/25 11:39:42;;;;;;;1.85;0.30;;;;;;;32.63;11.76;95839.75;6275754;28;20503;-69
2023/08/25 11:42:46;;;;;;;0.98;0.30;;;;;;;33.26;11.57;95828.03;6275380;28;20194;-71
2023/08/25 11:45:53;;;;;;;1.73;0.38;;;;;;;34.36;11.30;95833.03;6293284;28;20422;-71
2023/08/25 11:48:59;;;;;;;0.70;0.28;;;;;;;35.66;10.52;95830.34;6292695;28;20066;-69
2023/08/25 11:52:05;;;;;;;0.17;0.10;;;;;;;34.64;10.74;95828.06;6293136;28;20045;-71
2023/08/25 11:55:14;;;;;;;1.80;0.43;;;;;;;33.00;11.97;95822.50;6292986;28;20041;-69
2023/08/25 11:58:20;;;;;;;1.25;0.50;;;;;;;30.67;13.31;95826.44;6274737;28;20463;-69
2023/08/25 12:01:31;;;;;;;2.78;0.60;;;;;;;29.03;14.33;95831.88;6293072;28;20045;-69
2023/08/25 12:04:34;;;;;;;0.98;0.30;;;;;;;28.12;14.88;95818.00;6292679;28;20041;-69
2023/08/25 12:07:42;;;;;;;1.88;0.40;;;;;;;28.46;14.87;95826.38;6293002;28;20563;-71
2023/08/25 12:10:48;;;;;;;1.20;0.70;;;;;;;28.44;15.13;95828.47;6292668;28;20048;-71
2023/08/25 12:13:55;;;;;;;2.92;1.70;;;;;;;28.15;15.26;95820.25;6293026;28;20457;-70
2023/08/25 12:17:00;;;;;;;1.65;0.50;;;;;;;28.07;15.53;95830.59;6292440;28;20032;-71
2023/08/25 12:20:13;;;;;;;1.15;0.20;;;;;;;27.88;15.46;95825.28;6292733;28;20044;-70
2023/08/25 12:23:19;;;;;;;5.35;3.70;;;;;;;27.67;15.38;95818.53;6292683;28;20492;-71
2023/08/25 12:26:26;;;;;;;3.53;1.52;;;;;;;27.69;15.71;95824.53;6292732;28;20041;-71
2023/08/25 12:29:31;;;;;;;1.00;0.50;;;;;;;28.32;15.51;95835.75;6296859;28;20040;-72
2023/08/25 12:32:35;;;;;;;0.38;0.22;;;;;;;28.57;15.38;95833.63;6295846;28;20052;-71
2023/08/25 12:35:40;;;;;;;0.82;0.40;;;;;;;28.35;15.59;95829.88;6296759;28;20107;-71
2023/08/25 12:38:44;;;;;;;1.13;0.40;;;;;;;28.37;15.76;95844.00;6295992;28;20546;-71
2023/08/25 12:41:49;;;;;;;5.38;0.73;;;;;;;28.44;15.64;95836.59;6297163;28;20041;-71
2023/08/25 12:44:56;;;;;;;1.65;0.85;;;;;;;28.04;15.80;95844.59;6296608;28;20036;-71
2023/08/25 12:48:01;;;;;;;1.65;1.20;;;;;;;27.26;16.27;95831.03;6296687;28;20048;-70
2023/08/25 12:51:05;;;;;;;3.50;1.45;;;;;;;26.59;17.44;95833.72;6296723;28;20064;-71
2023/08/25 12:54:14;;;;;;;2.22;0.73;;;;;;;26.48;17.69;95841.72;6295975;28;20056;-71
2023/08/25 12:57:22;;;;;;;1.23;0.95;;;;;;;26.56;17.20;95836.06;6296301;28;20044;-70
2023/08/25 13:00:27;;;;;;;2.85;0.50;;;;;;;26.36;16.77;95834.34;6296377;28;20036;-71
2023/08/25 13:03:33;;;;;;;1.42;0.50;;;;;;;25.83;17.47;95834.88;6296372;28;20407;-71
2023/08/25 13:06:37;;;;;;;2.08;0.60;;;;;;;25.23;18.29;95834.47;6296301;28;20043;-69
2023/08/25 13:09:39;;;;;;;1.85;0.50;;;;;;;24.57;18.90;95831.03;6296242;28;20036;-71
2023/08/25 13:12:46;;;;;;;2.80;0.68;;;;;;;23.87;19.59;95830.75;6295492;28;20396;-71
2023/08/25 13:15:51;;;;;;;1.80;0.65;;;;;;;23.31;20.10;95837.28;6295205;28;20505;-71
2023/08/25 13:18:55;;;;;;;1.38;0.50;;;;;;;22.80;20.46;95840.44;6295773;28;20123;-71
2023/08/25 13:22:04;;;;;;;1.50;0.98;;;;;;;22.16;21.04;95796.00;6295145;28;20041;-70
2023/08/25 13:25:06;;;;;;;2.92;1.55;;;;;;;22.23;21.54;95844.31;6295057;28;20052;-70
2023/08/25 13:28:12;;;;;;;6.40;2.15;;;;;;;22.01;22.13;95838.16;6295939;28;20044;-70
2023/08/25 13:31:14;;;;;;;5.47;2.70;;;;;;;21.97;22.41;95848.44;6277235;28;20419;-70
2023/08/25 13:34:20;;;;;;;6.95;3.25;;;;;;;22.08;22.56;95843.56;6295624;28;20049;-70
2023/08/25 13:37:23;;;;;;;4.80;2.63;;;;;;;22.25;22.52;95847.63;6294828;28;20044;-70
2023/08/25 13:40:25;;;;;;;3.92;1.88;;;;;;;22.35;22.37;95849.94;6294045;28;20056;-70
2023/08/25 13:43:29;;;;;;;2.38;1.38;;;;;;;22.49;22.25;95853.53;6294989;28;20044;-70
2023/08/25 13:46:34;;;;;;;3.60;1.77;;;;;;;22.64;22.51;95856.88;6294778;28;20118;-70
2023/08/25 13:49:37;;;;;;;3.22;2.20;;;;;;;22.64;22.43;95846.97;6294177;28;20048;-71
2023/08/25 13:52:40;;;;;;;6.78;1.83;;;;;;;22.61;22.46;95851.91;6294576;28;20136;-70
2023/08/25 13:55:44;;;;;;;2.50;1.65;;;;;;;22.27;22.77;95850.91;6294200;28;20057;-70
2023/08/25 13:58:47;;;;;;;3.45;1.95;;;;;;;21.71;23.15;95808.06;6293819;28;20522;-70
2023/08/25 14:01:53;;;;;;;2.70;1.38;;;;;;;21.60;23.54;95863.00;6294290;28;20080;-71
2023/08/25 14:04:59;;;;;;;4.43;2.03;;;;;;;21.26;24.05;95853.81;6294712;28;20383;-70
2023/08/25 14:08:03;;;;;;;7.70;5.28;;;;;;;21.24;24.23;95865.72;6294929;28;20044;-70
2023/08/25 14:11:07;;;;;;;7.45;3.22;;;;;;;20.94;24.57;95855.09;6294454;28;20048;-70
2023/08/25 14:14:13;;;;;;;3.30;2.17;;;;;;;20.83;25.01;95868.94;6294678;28;20056;-70
2023/08/25 14:17:17;;;;;;;3.63;1.75;;;;;;;20.60;25.30;95869.09;6294858;28;20048;-70
2023/08/25 14:20:24;;;;;;;5.53;2.00;;;;;;;20.44;25.45;95875.44;6294978;28;20044;-70
2023/08/25 14:23:27;;;;;;;4.72;1.55;;;;;;;20.20;25.36;95876.53;6293683;28;20055;-70
2023/08/25 14:26:33;;;;;;;4.88;2.22;;;;;;;19.86;26.00;95872.53;6293642;28;20056;-70
2023/08/25 14:29:37;;;;;;;6.07;2.50;;;;;;;19.56;26.32;95876.97;6294533;28;20044;-70
2023/08/25 14:32:41;;;;;;;5.43;2.67;;;;;;;19.40;26.23;95879.78;6293685;28;20052;-69
2023/08/25 14:35:47;;;;;;;5.78;2.28;;;;;;;19.20;26.20;95885.56;6294327;28;20048;-70
2023/08/25 14:38:53;;;;;;;11.88;3.95;;;;;;;18.96;26.70;95885.72;6294252;28;20049;-69
2023/08/25 14:42:01;;;;;;;11.23;6.82;;;;;;;18.77;27.49;95892.34;6293988;28;20119;-70